Time;durP1;ratioP1;P1;durP2;ratioP2;P2;SDS_P1;SDS_P2;PMS_P1;PMS_P2;Temp;Humidity;BMP_temperature;BMP_pressure;BME280_temperature;BME280_humidity;BME280_pressure;Samples;Min_cycle;Max_cycle;Signal;HPM_P1;HPM_P2
2022/01/10 00:00:52;;;;;;;0.13;0.13;;;;;;;;;;1720651;28;20362;-72
2022/01/10 00:01:43;;;;;;;0.00;0.00;;;;;;;;;;1724811;28;20204;-72
2022/01/10 00:02:35;;;;;;;0.10;0.10;;;;;;;;;;1725157;28;20661;-72
2022/01/10 00:03:26;;;;;;;0.00;0.00;;;;;;;;;;1725574;28;20208;-72
2022/01/10 00:04:18;;;;;;;0.10;0.10;;;;;;;;;;1725128;28;20232;-72
2022/01/10 00:05:13;;;;;;;0.30;0.30;;;;;;;;;;1725041;28;20212;-72
2022/01/10 00:06:05;;;;;;;0.00;0.00;;;;;;;;;;1723425;28;20744;-72
2022/01/10 00:06:56;;;;;;;0.10;0.10;;;;;;;;;;1724990;28;20490;-72
2022/01/10 00:07:50;;;;;;;0.10;0.10;;;;;;;;;;1724676;28;20217;-72
2022/01/10 00:08:41;;;;;;;0.00;0.00;;;;;;;;;;1723193;28;20312;-72
2022/01/10 00:09:33;;;;;;;0.20;0.20;;;;;;;;;;1725354;28;20234;-72
2022/01/10 00:10:24;;;;;;;0.00;0.00;;;;;;;;;;1723696;28;20684;-72
2022/01/10 00:11:17;;;;;;;0.00;0.00;;;;;;;;;;1724784;28;20551;-72
2022/01/10 00:12:08;;;;;;;0.00;0.00;;;;;;;;;;1725743;28;20269;-72
2022/01/10 00:13:00;;;;;;;0.00;0.00;;;;;;;;;;1724936;28;20204;-72
2022/01/10 00:13:51;;;;;;;0.00;0.00;;;;;;;;;;1725655;28;20276;-72
2022/01/10 00:14:44;;;;;;;0.10;0.10;;;;;;;;;;1725165;28;20202;-72
2022/01/10 00:15:35;;;;;;;0.00;0.00;;;;;;;;;;1723379;28;20239;-72
2022/01/10 00:16:27;;;;;;;0.00;0.00;;;;;;;;;;1725196;28;20287;-72
2022/01/10 00:17:18;;;;;;;0.00;0.00;;;;;;;;;;1725558;28;20257;-72
2022/01/10 00:18:10;;;;;;;0.00;0.00;;;;;;;;;;1725295;28;20211;-72
2022/01/10 00:19:01;;;;;;;0.00;0.00;;;;;;;;;;1724458;28;20708;-72
2022/01/10 00:19:54;;;;;;;0.10;0.10;;;;;;;;;;1724985;28;20599;-72
2022/01/10 00:20:46;;;;;;;0.10;0.10;;;;;;;;;;1722813;28;20242;-72
2022/01/10 00:21:37;;;;;;;0.10;0.10;;;;;;;;;;1725247;28;20516;-72
2022/01/10 00:22:29;;;;;;;0.00;0.00;;;;;;;;;;1725439;28;20218;-72
2022/01/10 00:23:22;;;;;;;0.10;0.10;;;;;;;;;;1725374;28;20219;-72
2022/01/10 00:24:14;;;;;;;0.00;0.00;;;;;;;;;;1725629;28;20208;-72
2022/01/10 00:25:06;;;;;;;0.10;0.10;;;;;;;;;;1723572;28;20204;-72
2022/01/10 00:25:58;;;;;;;0.10;0.10;;;;;;;;;;1722799;28;20641;-72
2022/01/10 00:26:49;;;;;;;0.00;0.00;;;;;;;;;;1725538;28;20208;-72
2022/01/10 00:27:42;;;;;;;0.00;0.00;;;;;;;;;;1725076;28;20211;-72
2022/01/10 00:28:33;;;;;;;0.00;0.00;;;;;;;;;;1725549;28;20226;-72
2022/01/10 00:29:25;;;;;;;0.00;0.00;;;;;;;;;;1724655;28;20547;-72
2022/01/10 00:30:16;;;;;;;0.10;0.10;;;;;;;;;;1723896;28;20649;-72
2022/01/10 00:31:09;;;;;;;0.00;0.00;;;;;;;;;;1722864;28;20239;-72
2022/01/10 00:32:00;;;;;;;0.00;0.00;;;;;;;;;;1725328;28;20208;-72
2022/01/10 00:32:53;;;;;;;0.00;0.00;;;;;;;;;;1724831;28;20542;-72
2022/01/10 00:33:44;;;;;;;0.08;0.08;;;;;;;;;;1725585;28;20208;-72
2022/01/10 00:34:36;;;;;;;0.00;0.00;;;;;;;;;;1724740;28;20228;-72
2022/01/10 00:35:28;;;;;;;0.00;0.00;;;;;;;;;;1723263;28;20235;-72
2022/01/10 00:36:20;;;;;;;0.00;0.00;;;;;;;;;;1724800;28;20652;-72
2022/01/10 00:37:11;;;;;;;0.10;0.10;;;;;;;;;;1724827;28;20562;-72
2022/01/10 00:38:03;;;;;;;0.00;0.00;;;;;;;;;;1725426;28;20304;-72
2022/01/10 00:38:56;;;;;;;0.00;0.00;;;;;;;;;;1725475;28;20204;-72
2022/01/10 00:39:49;;;;;;;0.00;0.00;;;;;;;;;;1724994;28;20211;-72
2022/01/10 00:40:42;;;;;;;0.00;0.00;;;;;;;;;;1722508;28;20251;-72
2022/01/10 00:41:34;;;;;;;0.00;0.00;;;;;;;;;;1725292;28;20609;-72
2022/01/10 00:42:25;;;;;;;0.00;0.00;;;;;;;;;;1725016;28;20266;-72
2022/01/10 00:43:28;;;;;;;0.10;0.10;;;;;;;;;;1724601;28;20254;-72
2022/01/10 00:44:25;;;;;;;0.00;0.00;;;;;;;;;;1724984;28;20234;-72
2022/01/10 00:45:23;;;;;;;0.00;0.00;;;;;;;;;;1723385;28;20609;-72
2022/01/10 00:46:15;;;;;;;0.00;0.00;;;;;;;;;;1717730;28;20688;-72
2022/01/10 00:47:07;;;;;;;0.00;0.00;;;;;;;;;;1718879;28;20205;-72
2022/01/10 00:48:00;;;;;;;0.00;0.00;;;;;;;;;;1718209;28;20505;-73
2022/01/10 00:48:51;;;;;;;0.10;0.10;;;;;;;;;;1718459;28;20205;-72
2022/01/10 00:49:44;;;;;;;0.03;0.03;;;;;;;;;;1717425;28;20324;-72
2022/01/10 00:50:35;;;;;;;0.00;0.00;;;;;;;;;;1715578;28;20298;-72
2022/01/10 00:51:27;;;;;;;0.00;0.00;;;;;;;;;;1718146;28;20296;-72
2022/01/10 00:52:19;;;;;;;0.00;0.00;;;;;;;;;;1718745;28;20208;-72
2022/01/10 00:53:11;;;;;;;0.00;0.00;;;;;;;;;;1718130;28;20240;-72
2022/01/10 00:54:03;;;;;;;0.00;0.00;;;;;;;;;;1718603;28;20224;-72
2022/01/10 00:54:56;;;;;;;0.00;0.00;;;;;;;;;;1718090;28;20205;-72
2022/01/10 00:55:47;;;;;;;0.00;0.00;;;;;;;;;;1720726;28;20235;-72
2022/01/10 00:56:39;;;;;;;0.00;0.00;;;;;;;;;;1724825;28;20207;-72
2022/01/10 00:57:30;;;;;;;0.10;0.10;;;;;;;;;;1725346;28;20208;-72
2022/01/10 00:58:22;;;;;;;0.13;0.13;;;;;;;;;;1725181;28;20322;-72
2022/01/10 00:59:13;;;;;;;0.00;0.00;;;;;;;;;;1724861;28;20649;-72
2022/01/10 01:00:07;;;;;;;0.10;0.10;;;;;;;;;;1725297;28;20298;-72
2022/01/10 01:00:58;;;;;;;0.00;0.00;;;;;;;;;;1723106;28;20835;-72
2022/01/10 01:01:50;;;;;;;0.00;0.00;;;;;;;;;;1724567;28;20292;-72
2022/01/10 01:02:41;;;;;;;0.00;0.00;;;;;;;;;;1724868;28;20561;-72
2022/01/10 01:03:34;;;;;;;0.00;0.00;;;;;;;;;;1725391;28;20200;-72
2022/01/10 01:04:25;;;;;;;0.00;0.00;;;;;;;;;;1724901;28;20212;-72
2022/01/10 01:05:19;;;;;;;0.00;0.00;;;;;;;;;;1723787;28;20208;-72
2022/01/10 01:06:12;;;;;;;0.00;0.00;;;;;;;;;;1724057;28;20713;-72
2022/01/10 01:07:04;;;;;;;0.00;0.00;;;;;;;;;;1722963;28;20239;-72
2022/01/10 01:07:57;;;;;;;0.00;0.00;;;;;;;;;;1723778;28;20653;-72
2022/01/10 01:08:50;;;;;;;0.05;0.05;;;;;;;;;;1725525;28;20638;-72
2022/01/10 01:09:47;;;;;;;0.00;0.00;;;;;;;;;;1725144;28;20208;-72
2022/01/10 01:13:20;;;;;;;0.10;0.10;;;;;;;;;;1701591;29;20241;-72
2022/01/10 01:14:22;;;;;;;0.00;0.00;;;;;;;;;;1702360;29;20679;-72
2022/01/10 01:15:26;;;;;;;0.00;0.00;;;;;;;;;;1696285;29;20267;-72
2022/01/10 01:16:29;;;;;;;0.00;0.00;;;;;;;;;;1716647;28;20252;-72
2022/01/10 01:19:02;;;;;;;0.10;0.10;;;;;;;;;;1711284;28;20567;-72
2022/01/10 01:20:08;;;;;;;0.10;0.10;;;;;;;;;;1717820;28;20315;-72
2022/01/10 01:24:31;;;;;;;0.10;0.10;;;;;;;;;;1726134;28;20232;-72
2022/01/10 01:25:24;;;;;;;0.00;0.00;;;;;;;;;;1722097;28;20222;-72
2022/01/10 01:26:16;;;;;;;0.10;0.10;;;;;;;;;;1725125;28;20508;-72
2022/01/10 01:27:07;;;;;;;0.00;0.00;;;;;;;;;;1726918;28;20783;-72
2022/01/10 01:27:59;;;;;;;0.20;0.20;;;;;;;;;;1725687;28;20536;-72
2022/01/10 01:28:51;;;;;;;0.00;0.00;;;;;;;;;;1726769;28;20204;-72
2022/01/10 01:29:43;;;;;;;0.00;0.00;;;;;;;;;;1725851;28;20211;-72
2022/01/10 01:30:34;;;;;;;0.10;0.10;;;;;;;;;;1723937;28;20242;-72
2022/01/10 01:31:26;;;;;;;0.10;0.10;;;;;;;;;;1725848;28;20636;-72
2022/01/10 01:32:17;;;;;;;0.00;0.00;;;;;;;;;;1725842;28;20666;-72
2022/01/10 01:33:09;;;;;;;0.00;0.00;;;;;;;;;;1726052;28;20204;-72
2022/01/10 01:34:01;;;;;;;0.00;0.00;;;;;;;;;;1726770;28;20208;-72
2022/01/10 01:34:56;;;;;;;0.10;0.10;;;;;;;;;;1726271;28;20211;-72
2022/01/10 01:35:47;;;;;;;0.10;0.10;;;;;;;;;;1724338;28;20322;-72
2022/01/10 01:36:40;;;;;;;0.00;0.00;;;;;;;;;;1726324;28;20200;-72
2022/01/10 01:37:31;;;;;;;0.00;0.00;;;;;;;;;;1726593;28;20219;-72
2022/01/10 01:38:24;;;;;;;0.00;0.00;;;;;;;;;;1725662;28;20213;-72
2022/01/10 01:39:20;;;;;;;0.10;0.10;;;;;;;;;;1726032;28;20204;-72
2022/01/10 01:40:13;;;;;;;0.00;0.00;;;;;;;;;;1725469;28;20300;-72
2022/01/10 01:41:20;;;;;;;0.10;0.10;;;;;;;;;;1724757;28;20689;-72
2022/01/10 01:42:32;;;;;;;0.00;0.00;;;;;;;;;;1725480;28;20207;-72
2022/01/10 01:43:23;;;;;;;0.00;0.00;;;;;;;;;;1726173;28;20209;-72
2022/01/10 01:44:16;;;;;;;0.00;0.00;;;;;;;;;;1725465;28;20208;-72
2022/01/10 01:45:10;;;;;;;0.05;0.05;;;;;;;;;;1724284;28;20534;-72
2022/01/10 01:46:02;;;;;;;0.10;0.10;;;;;;;;;;1724661;28;20236;-72
2022/01/10 01:46:53;;;;;;;0.00;0.00;;;;;;;;;;1726448;28;20231;-72
2022/01/10 01:47:45;;;;;;;0.00;0.00;;;;;;;;;;1726130;28;20598;-72
2022/01/10 01:48:36;;;;;;;0.00;0.00;;;;;;;;;;1726708;28;20207;-72
2022/01/10 01:49:29;;;;;;;0.00;0.00;;;;;;;;;;1725457;28;20204;-72
2022/01/10 01:50:20;;;;;;;0.00;0.00;;;;;;;;;;1724024;28;20243;-72
2022/01/10 01:51:12;;;;;;;0.03;0.03;;;;;;;;;;1724665;28;20263;-72
2022/01/10 01:52:04;;;;;;;0.10;0.10;;;;;;;;;;1725046;28;20212;-72
2022/01/10 01:52:56;;;;;;;0.08;0.08;;;;;;;;;;1725873;28;20215;-72
2022/01/10 01:53:48;;;;;;;0.00;0.00;;;;;;;;;;1726564;28;20204;-72
2022/01/10 01:54:40;;;;;;;0.00;0.00;;;;;;;;;;1725586;28;20235;-72
2022/01/10 01:55:31;;;;;;;0.00;0.00;;;;;;;;;;1724360;28;20554;-72
2022/01/10 01:56:25;;;;;;;0.00;0.00;;;;;;;;;;1725595;28;20585;-72
2022/01/10 01:57:16;;;;;;;0.10;0.10;;;;;;;;;;1725825;28;20239;-72
2022/01/10 01:58:09;;;;;;;0.00;0.00;;;;;;;;;;1726198;28;20484;-72
2022/01/10 01:59:00;;;;;;;0.17;0.17;;;;;;;;;;1726516;28;20208;-72
2022/01/10 01:59:52;;;;;;;0.00;0.00;;;;;;;;;;1725545;28;20206;-72
2022/01/10 02:00:44;;;;;;;0.00;0.00;;;;;;;;;;1723827;28;20504;-72
2022/01/10 02:01:36;;;;;;;0.00;0.00;;;;;;;;;;1725446;28;20304;-72
2022/01/10 02:02:27;;;;;;;0.00;0.00;;;;;;;;;;1726053;28;20215;-72
2022/01/10 02:03:19;;;;;;;0.10;0.10;;;;;;;;;;1725694;28;20235;-72
2022/01/10 02:04:10;;;;;;;0.10;0.10;;;;;;;;;;1726285;28;20218;-72
2022/01/10 02:05:03;;;;;;;0.10;0.10;;;;;;;;;;1726145;28;20215;-72
2022/01/10 02:05:54;;;;;;;0.00;0.00;;;;;;;;;;1723750;28;20676;-72
2022/01/10 02:06:46;;;;;;;0.00;0.00;;;;;;;;;;1725352;28;20210;-72
2022/01/10 02:07:37;;;;;;;0.00;0.00;;;;;;;;;;1725903;28;20204;-72
2022/01/10 02:08:30;;;;;;;0.10;0.10;;;;;;;;;;1726413;28;20216;-72
2022/01/10 02:09:21;;;;;;;0.17;0.17;;;;;;;;;;1725100;28;20220;-72
2022/01/10 02:10:13;;;;;;;0.20;0.20;;;;;;;;;;1724616;28;20215;-72
2022/01/10 02:11:06;;;;;;;0.10;0.10;;;;;;;;;;1724509;28;20240;-72
2022/01/10 02:11:59;;;;;;;0.05;0.05;;;;;;;;;;1726250;28;20236;-72
2022/01/10 02:12:51;;;;;;;0.00;0.00;;;;;;;;;;1725872;28;20208;-72
2022/01/10 02:13:44;;;;;;;0.00;0.00;;;;;;;;;;1726660;28;20197;-72
2022/01/10 02:14:36;;;;;;;0.00;0.00;;;;;;;;;;1725494;28;20283;-72
2022/01/10 02:15:33;;;;;;;0.00;0.00;;;;;;;;;;1723492;28;20947;-72
2022/01/10 02:16:33;;;;;;;0.00;0.00;;;;;;;;;;1725608;28;20212;-72
2022/01/10 02:17:35;;;;;;;0.10;0.10;;;;;;;;;;1726301;28;20276;-72
2022/01/10 02:18:27;;;;;;;0.05;0.05;;;;;;;;;;1725332;28;20240;-72
2022/01/10 02:19:19;;;;;;;0.00;0.00;;;;;;;;;;1725708;28;20215;-72
2022/01/10 02:20:12;;;;;;;0.00;0.00;;;;;;;;;;1725809;28;20212;-72
2022/01/10 02:21:05;;;;;;;0.00;0.00;;;;;;;;;;1724913;28;20247;-72
2022/01/10 02:21:56;;;;;;;0.00;0.00;;;;;;;;;;1726250;28;20220;-72
2022/01/10 02:22:48;;;;;;;0.00;0.00;;;;;;;;;;1725597;28;20219;-72
2022/01/10 02:23:39;;;;;;;0.00;0.00;;;;;;;;;;1726564;28;20214;-72
2022/01/10 02:24:32;;;;;;;0.00;0.00;;;;;;;;;;1725576;28;20208;-72
2022/01/10 02:25:23;;;;;;;0.00;0.00;;;;;;;;;;1722522;28;20213;-72
2022/01/10 02:26:15;;;;;;;0.00;0.00;;;;;;;;;;1724879;28;20275;-72
2022/01/10 02:27:07;;;;;;;0.00;0.00;;;;;;;;;;1725901;28;20703;-72
2022/01/10 02:27:59;;;;;;;0.20;0.20;;;;;;;;;;1725362;28;20318;-72
2022/01/10 02:28:51;;;;;;;0.00;0.00;;;;;;;;;;1726386;28;20258;-72
2022/01/10 02:29:43;;;;;;;0.00;0.00;;;;;;;;;;1725443;28;20311;-72
2022/01/10 02:30:34;;;;;;;0.00;0.00;;;;;;;;;;1723202;28;20240;-72
2022/01/10 02:31:26;;;;;;;0.20;0.20;;;;;;;;;;1725217;28;20250;-72
2022/01/10 02:32:18;;;;;;;0.10;0.10;;;;;;;;;;1726437;28;20231;-72
2022/01/10 02:33:10;;;;;;;0.10;0.10;;;;;;;;;;1725359;28;20208;-72
2022/01/10 02:34:01;;;;;;;0.00;0.00;;;;;;;;;;1725833;28;20219;-72
2022/01/10 02:34:53;;;;;;;0.00;0.00;;;;;;;;;;1726070;28;20215;-72
2022/01/10 02:35:54;;;;;;;0.00;0.00;;;;;;;;;;1724061;28;20709;-72
2022/01/10 02:36:46;;;;;;;0.00;0.00;;;;;;;;;;1726102;28;20688;-72
2022/01/10 02:37:38;;;;;;;0.00;0.00;;;;;;;;;;1725939;28;20637;-71
2022/01/10 02:38:29;;;;;;;0.10;0.10;;;;;;;;;;1726540;28;20200;-71
2022/01/10 02:39:21;;;;;;;0.00;0.00;;;;;;;;;;1725091;28;20566;-71
2022/01/10 02:40:14;;;;;;;0.10;0.10;;;;;;;;;;1724508;28;20232;-71
2022/01/10 02:41:06;;;;;;;0.00;0.00;;;;;;;;;;1724437;28;20243;-72
2022/01/10 02:41:57;;;;;;;0.00;0.00;;;;;;;;;;1726237;28;20298;-72
2022/01/10 02:42:50;;;;;;;0.00;0.00;;;;;;;;;;1725828;28;20197;-72
2022/01/10 02:43:41;;;;;;;0.20;0.20;;;;;;;;;;1726350;28;20204;-72
2022/01/10 02:44:33;;;;;;;0.00;0.00;;;;;;;;;;1725900;28;20291;-72
2022/01/10 02:45:25;;;;;;;0.10;0.10;;;;;;;;;;1724057;28;20270;-72
2022/01/10 02:46:17;;;;;;;0.05;0.05;;;;;;;;;;1718900;28;20271;-72
2022/01/10 02:47:08;;;;;;;0.00;0.00;;;;;;;;;;1719626;28;20347;-72
2022/01/10 02:48:00;;;;;;;0.08;0.08;;;;;;;;;;1718836;28;20267;-72
2022/01/10 02:48:52;;;;;;;0.00;0.00;;;;;;;;;;1719900;28;20558;-72
2022/01/10 02:49:44;;;;;;;0.00;0.00;;;;;;;;;;1718592;28;20203;-72
2022/01/10 02:50:35;;;;;;;0.00;0.00;;;;;;;;;;1720941;28;20240;-72
2022/01/10 02:51:28;;;;;;;0.00;0.00;;;;;;;;;;1725294;28;20322;-72
2022/01/10 02:52:20;;;;;;;0.00;0.00;;;;;;;;;;1725477;28;20212;-72
2022/01/10 02:53:12;;;;;;;0.00;0.00;;;;;;;;;;1726352;28;20230;-72
2022/01/10 02:54:03;;;;;;;0.00;0.00;;;;;;;;;;1720691;28;20208;-72
2022/01/10 02:54:57;;;;;;;0.00;0.00;;;;;;;;;;1726125;28;20204;-72
2022/01/10 02:55:48;;;;;;;0.00;0.00;;;;;;;;;;1718343;28;20236;-72
2022/01/10 02:56:46;;;;;;;0.00;0.00;;;;;;;;;;1719498;28;20205;-72
2022/01/10 02:57:38;;;;;;;0.10;0.10;;;;;;;;;;1718641;28;20550;-72
2022/01/10 02:58:31;;;;;;;0.00;0.00;;;;;;;;;;1719473;28;20290;-72
2022/01/10 02:59:23;;;;;;;0.00;0.00;;;;;;;;;;1719153;28;20266;-72
2022/01/10 03:00:17;;;;;;;0.00;0.00;;;;;;;;;;1719194;28;20205;-72
2022/01/10 03:01:08;;;;;;;0.00;0.00;;;;;;;;;;1724603;28;20239;-72
2022/01/10 03:02:00;;;;;;;0.10;0.10;;;;;;;;;;1726337;28;20201;-72
2022/01/10 03:02:53;;;;;;;0.00;0.00;;;;;;;;;;1725956;28;20307;-72
2022/01/10 03:03:45;;;;;;;0.00;0.00;;;;;;;;;;1724169;28;20656;-72
2022/01/10 03:04:37;;;;;;;0.00;0.00;;;;;;;;;;1725263;28;20215;-72
2022/01/10 03:05:29;;;;;;;0.08;0.08;;;;;;;;;;1724583;28;20577;-72
2022/01/10 03:06:20;;;;;;;0.05;0.05;;;;;;;;;;1725828;28;20643;-72
2022/01/10 03:07:15;;;;;;;0.00;0.00;;;;;;;;;;1726945;28;20204;-72
2022/01/10 03:08:07;;;;;;;0.00;0.00;;;;;;;;;;1725912;28;20234;-72
2022/01/10 03:09:04;;;;;;;0.00;0.00;;;;;;;;;;1726716;28;20215;-71
2022/01/10 03:09:55;;;;;;;0.00;0.00;;;;;;;;;;1725856;28;20200;-71
2022/01/10 03:10:48;;;;;;;0.00;0.00;;;;;;;;;;1723226;28;20228;-71
2022/01/10 03:11:41;;;;;;;0.00;0.00;;;;;;;;;;1726408;28;20233;-71
2022/01/10 03:12:33;;;;;;;0.00;0.00;;;;;;;;;;1725968;28;20200;-71
2022/01/10 03:13:24;;;;;;;0.00;0.00;;;;;;;;;;1726261;28;20212;-71
2022/01/10 03:14:17;;;;;;;0.00;0.00;;;;;;;;;;1725975;28;20236;-71
2022/01/10 03:15:10;;;;;;;0.00;0.00;;;;;;;;;;1725470;28;20213;-71
2022/01/10 03:16:03;;;;;;;0.00;0.00;;;;;;;;;;1724152;28;20234;-71
2022/01/10 03:16:54;;;;;;;0.00;0.00;;;;;;;;;;1725801;28;20590;-72
2022/01/10 03:17:46;;;;;;;0.00;0.00;;;;;;;;;;1726166;28;20212;-72
2022/01/10 03:18:38;;;;;;;0.00;0.00;;;;;;;;;;1726239;28;20230;-72
2022/01/10 03:19:30;;;;;;;0.00;0.00;;;;;;;;;;1725652;28;20246;-72
2022/01/10 03:20:23;;;;;;;0.00;0.00;;;;;;;;;;1724917;28;20550;-72
2022/01/10 03:21:19;;;;;;;0.00;0.00;;;;;;;;;;1725388;28;20232;-72
2022/01/10 03:22:10;;;;;;;0.00;0.00;;;;;;;;;;1726286;28;20255;-72
2022/01/10 03:23:04;;;;;;;0.00;0.00;;;;;;;;;;1724319;28;20266;-72
2022/01/10 03:23:55;;;;;;;0.00;0.00;;;;;;;;;;1725833;28;20209;-72
2022/01/10 03:24:47;;;;;;;0.00;0.00;;;;;;;;;;1726236;28;20254;-72
2022/01/10 03:25:39;;;;;;;0.08;0.08;;;;;;;;;;1723874;28;20233;-72
2022/01/10 03:26:32;;;;;;;0.10;0.10;;;;;;;;;;1725693;28;20672;-71
2022/01/10 03:27:24;;;;;;;0.00;0.00;;;;;;;;;;1726319;28;20208;-71
2022/01/10 03:28:16;;;;;;;0.00;0.00;;;;;;;;;;1725772;28;20216;-71
2022/01/10 03:29:07;;;;;;;0.10;0.10;;;;;;;;;;1725057;28;20209;-71
2022/01/10 03:29:59;;;;;;;0.00;0.00;;;;;;;;;;1725676;28;20215;-71
2022/01/10 03:30:51;;;;;;;0.00;0.00;;;;;;;;;;1723061;28;20239;-72
2022/01/10 03:31:43;;;;;;;0.00;0.00;;;;;;;;;;1725565;28;20256;-72
2022/01/10 03:32:34;;;;;;;0.00;0.00;;;;;;;;;;1725751;28;20204;-72
2022/01/10 03:33:26;;;;;;;0.00;0.00;;;;;;;;;;1725935;28;20266;-72
2022/01/10 03:34:17;;;;;;;0.00;0.00;;;;;;;;;;1725256;28;20212;-72
2022/01/10 03:35:13;;;;;;;0.10;0.10;;;;;;;;;;1724401;28;20239;-72
2022/01/10 03:36:05;;;;;;;0.00;0.00;;;;;;;;;;1724072;28;20677;-71
2022/01/10 03:36:57;;;;;;;0.00;0.00;;;;;;;;;;1726432;28;20239;-71
2022/01/10 03:37:48;;;;;;;0.00;0.00;;;;;;;;;;1726232;28;20200;-71
2022/01/10 03:38:42;;;;;;;0.00;0.00;;;;;;;;;;1726289;28;20649;-71
2022/01/10 03:39:35;;;;;;;0.00;0.00;;;;;;;;;;1725012;28;20208;-71
2022/01/10 03:40:27;;;;;;;0.00;0.00;;;;;;;;;;1721344;28;20204;-72
2022/01/10 03:41:18;;;;;;;0.00;0.00;;;;;;;;;;1724480;28;20208;-72
2022/01/10 03:42:09;;;;;;;0.00;0.00;;;;;;;;;;1725818;28;20204;-72
2022/01/10 03:43:02;;;;;;;0.00;0.00;;;;;;;;;;1724935;28;20218;-72
2022/01/10 03:43:53;;;;;;;0.10;0.10;;;;;;;;;;1726084;28;20542;-73
2022/01/10 03:44:45;;;;;;;0.00;0.00;;;;;;;;;;1725103;28;20555;-72
2022/01/10 03:45:36;;;;;;;0.00;0.00;;;;;;;;;;1723556;28;20335;-72
2022/01/10 03:46:31;;;;;;;0.00;0.00;;;;;;;;;;1726172;28;20200;-72
2022/01/10 03:47:23;;;;;;;0.00;0.00;;;;;;;;;;1725159;28;20212;-72
2022/01/10 03:48:15;;;;;;;0.00;0.00;;;;;;;;;;1725462;28;20208;-72
2022/01/10 03:49:07;;;;;;;0.00;0.00;;;;;;;;;;1725873;28;20251;-71
2022/01/10 03:49:59;;;;;;;0.00;0.00;;;;;;;;;;1724887;28;20613;-71
2022/01/10 03:50:50;;;;;;;0.00;0.00;;;;;;;;;;1723111;28;20243;-72
2022/01/10 03:51:43;;;;;;;0.10;0.10;;;;;;;;;;1725486;28;20200;-72
2022/01/10 03:52:34;;;;;;;0.00;0.00;;;;;;;;;;1725664;28;20215;-72
2022/01/10 03:53:26;;;;;;;0.00;0.00;;;;;;;;;;1725280;28;20705;-72
2022/01/10 03:54:19;;;;;;;0.00;0.00;;;;;;;;;;1725260;28;20213;-72
2022/01/10 03:55:11;;;;;;;0.08;0.08;;;;;;;;;;1724430;28;20208;-72
2022/01/10 03:56:03;;;;;;;0.00;0.00;;;;;;;;;;1724289;28;20235;-72
2022/01/10 03:56:55;;;;;;;0.00;0.00;;;;;;;;;;1725729;28;20258;-72
2022/01/10 03:57:46;;;;;;;0.00;0.00;;;;;;;;;;1725212;28;20208;-72
2022/01/10 03:58:38;;;;;;;0.00;0.00;;;;;;;;;;1725761;28;20206;-72
2022/01/10 03:59:29;;;;;;;0.00;0.00;;;;;;;;;;1724285;28;20212;-72
2022/01/10 04:00:22;;;;;;;0.00;0.00;;;;;;;;;;1723736;28;20208;-72
2022/01/10 04:01:13;;;;;;;0.00;0.00;;;;;;;;;;1723825;28;20578;-72
2022/01/10 04:02:05;;;;;;;0.00;0.00;;;;;;;;;;1724660;28;20196;-72
2022/01/10 04:03:01;;;;;;;0.00;0.00;;;;;;;;;;1725085;28;20540;-72
2022/01/10 04:03:54;;;;;;;0.00;0.00;;;;;;;;;;1726131;28;20677;-72
2022/01/10 04:04:45;;;;;;;0.00;0.00;;;;;;;;;;1724734;28;20212;-72
2022/01/10 04:05:37;;;;;;;0.03;0.03;;;;;;;;;;1722954;28;20235;-72
2022/01/10 04:06:29;;;;;;;0.00;0.00;;;;;;;;;;1724865;28;20208;-72
2022/01/10 04:07:21;;;;;;;0.00;0.00;;;;;;;;;;1725734;28;20262;-72
2022/01/10 04:08:12;;;;;;;0.00;0.00;;;;;;;;;;1725633;28;20665;-72
2022/01/10 04:09:05;;;;;;;0.00;0.00;;;;;;;;;;1725624;28;20634;-72
2022/01/10 04:09:57;;;;;;;0.00;0.00;;;;;;;;;;1725260;28;20208;-72
2022/01/10 04:10:50;;;;;;;0.00;0.00;;;;;;;;;;1722640;28;20744;-72
2022/01/10 04:11:41;;;;;;;0.05;0.05;;;;;;;;;;1724566;28;20413;-72
2022/01/10 04:12:33;;;;;;;0.08;0.08;;;;;;;;;;1725383;28;20204;-72
2022/01/10 04:13:24;;;;;;;0.00;0.00;;;;;;;;;;1725667;28;20281;-72
2022/01/10 04:14:16;;;;;;;0.00;0.00;;;;;;;;;;1725291;28;20212;-72
2022/01/10 04:15:09;;;;;;;0.10;0.10;;;;;;;;;;1723523;28;20219;-72
2022/01/10 04:16:01;;;;;;;0.00;0.00;;;;;;;;;;1723684;28;20375;-72
2022/01/10 04:16:53;;;;;;;0.00;0.00;;;;;;;;;;1725599;28;20885;-72
2022/01/10 04:17:45;;;;;;;0.00;0.00;;;;;;;;;;1724385;28;20209;-72
2022/01/10 04:18:36;;;;;;;0.10;0.10;;;;;;;;;;1725791;28;20207;-72
2022/01/10 04:19:28;;;;;;;0.00;0.00;;;;;;;;;;1724720;28;20558;-72
2022/01/10 04:20:19;;;;;;;0.10;0.10;;;;;;;;;;1724227;28;20223;-72
2022/01/10 04:21:11;;;;;;;0.00;0.00;;;;;;;;;;1723450;28;20242;-72
2022/01/10 04:22:04;;;;;;;0.05;0.05;;;;;;;;;;1725603;28;20205;-72
2022/01/10 04:22:56;;;;;;;0.00;0.00;;;;;;;;;;1724973;28;20217;-72
2022/01/10 04:23:47;;;;;;;0.00;0.00;;;;;;;;;;1724974;28;20218;-72
2022/01/10 04:24:40;;;;;;;0.00;0.00;;;;;;;;;;1724853;28;20618;-72
2022/01/10 04:25:32;;;;;;;0.10;0.10;;;;;;;;;;1723491;28;20236;-72
2022/01/10 04:26:24;;;;;;;0.00;0.00;;;;;;;;;;1725826;28;20523;-72
2022/01/10 04:27:16;;;;;;;0.00;0.00;;;;;;;;;;1725251;28;20209;-72
2022/01/10 04:28:08;;;;;;;0.10;0.10;;;;;;;;;;1725055;28;20246;-72
2022/01/10 04:28:59;;;;;;;0.00;0.00;;;;;;;;;;1725464;28;20212;-72
2022/01/10 04:29:51;;;;;;;0.00;0.00;;;;;;;;;;1724067;28;20714;-72
2022/01/10 04:30:42;;;;;;;0.10;0.10;;;;;;;;;;1722317;28;20672;-72
2022/01/10 04:31:34;;;;;;;0.00;0.00;;;;;;;;;;1724926;28;20716;-72
2022/01/10 04:32:28;;;;;;;0.10;0.10;;;;;;;;;;1725089;28;20247;-72
2022/01/10 04:33:21;;;;;;;0.10;0.10;;;;;;;;;;1724727;28;20578;-72
2022/01/10 04:34:12;;;;;;;0.05;0.05;;;;;;;;;;1725300;28;20306;-72
2022/01/10 04:35:05;;;;;;;0.00;0.00;;;;;;;;;;1725520;28;20204;-72
2022/01/10 04:35:57;;;;;;;0.00;0.00;;;;;;;;;;1722064;28;20401;-72
2022/01/10 04:36:49;;;;;;;0.03;0.03;;;;;;;;;;1724148;28;20196;-72
2022/01/10 04:37:40;;;;;;;0.10;0.10;;;;;;;;;;1724615;28;20642;-72
2022/01/10 04:38:32;;;;;;;0.10;0.10;;;;;;;;;;1725430;28;20207;-72
2022/01/10 04:39:23;;;;;;;0.00;0.00;;;;;;;;;;1724835;28;20649;-73
2022/01/10 04:40:16;;;;;;;0.00;0.00;;;;;;;;;;1724112;28;20319;-72
2022/01/10 04:41:08;;;;;;;0.00;0.00;;;;;;;;;;1723810;28;20240;-72
2022/01/10 04:42:01;;;;;;;0.10;0.10;;;;;;;;;;1725102;28;20484;-72
2022/01/10 04:42:52;;;;;;;0.00;0.00;;;;;;;;;;1724351;28;20581;-72
2022/01/10 04:43:44;;;;;;;0.00;0.00;;;;;;;;;;1725699;28;20525;-72
2022/01/10 04:44:35;;;;;;;0.00;0.00;;;;;;;;;;1724820;28;20200;-72
2022/01/10 04:45:28;;;;;;;0.10;0.10;;;;;;;;;;1723369;28;20207;-72
2022/01/10 04:46:19;;;;;;;0.10;0.10;;;;;;;;;;1724751;28;20211;-72
2022/01/10 04:47:11;;;;;;;0.03;0.03;;;;;;;;;;1725741;28;20232;-72
2022/01/10 04:48:03;;;;;;;0.00;0.00;;;;;;;;;;1724298;28;20209;-72
2022/01/10 04:48:55;;;;;;;0.00;0.00;;;;;;;;;;1725242;28;20204;-72
2022/01/10 04:50:05;;;;;;;0.00;0.00;;;;;;;;;;1724916;28;20248;-72
2022/01/10 04:51:12;;;;;;;0.00;0.00;;;;;;;;;;1710232;28;20241;-72
2022/01/10 04:52:03;;;;;;;0.00;0.00;;;;;;;;;;1712114;28;20633;-71
2022/01/10 04:52:55;;;;;;;0.00;0.00;;;;;;;;;;1711307;28;20209;-71
2022/01/10 04:53:50;;;;;;;0.10;0.10;;;;;;;;;;1711924;28;20223;-71
2022/01/10 04:54:41;;;;;;;0.10;0.10;;;;;;;;;;1710350;28;20595;-71
2022/01/10 04:55:33;;;;;;;0.00;0.00;;;;;;;;;;1710141;28;20254;-71
2022/01/10 04:56:26;;;;;;;0.05;0.05;;;;;;;;;;1711219;28;20201;-71
2022/01/10 04:57:18;;;;;;;0.00;0.00;;;;;;;;;;1712010;28;20641;-71
2022/01/10 04:58:09;;;;;;;0.00;0.00;;;;;;;;;;1711513;28;20219;-71
2022/01/10 04:59:01;;;;;;;0.05;0.05;;;;;;;;;;1711620;28;20208;-72
2022/01/10 04:59:52;;;;;;;0.00;0.00;;;;;;;;;;1711424;28;20213;-72
2022/01/10 05:00:45;;;;;;;0.10;0.10;;;;;;;;;;1708456;28;20233;-72
2022/01/10 05:01:37;;;;;;;0.10;0.10;;;;;;;;;;1711093;28;20209;-72
2022/01/10 05:02:28;;;;;;;0.10;0.10;;;;;;;;;;1711637;28;20200;-71
2022/01/10 05:03:19;;;;;;;0.13;0.13;;;;;;;;;;1711534;28;20215;-71
2022/01/10 05:04:12;;;;;;;0.10;0.10;;;;;;;;;;1711454;28;20238;-71
2022/01/10 05:05:03;;;;;;;0.10;0.10;;;;;;;;;;1711626;28;20221;-71
2022/01/10 05:05:56;;;;;;;0.00;0.00;;;;;;;;;;1710402;28;20252;-71
2022/01/10 05:06:47;;;;;;;0.00;0.00;;;;;;;;;;1711105;28;20232;-71
2022/01/10 05:07:39;;;;;;;0.00;0.00;;;;;;;;;;1711451;28;20293;-71
2022/01/10 05:08:30;;;;;;;0.15;0.15;;;;;;;;;;1711949;28;20243;-71
2022/01/10 05:09:23;;;;;;;0.00;0.00;;;;;;;;;;1710957;28;20216;-71
2022/01/10 05:10:14;;;;;;;0.00;0.00;;;;;;;;;;1710825;28;20571;-71
2022/01/10 05:11:06;;;;;;;0.00;0.00;;;;;;;;;;1710287;28;20255;-71
2022/01/10 05:11:58;;;;;;;0.00;0.00;;;;;;;;;;1712113;28;20219;-71
2022/01/10 05:12:51;;;;;;;0.00;0.00;;;;;;;;;;1710804;28;20223;-71
2022/01/10 05:13:42;;;;;;;0.03;0.03;;;;;;;;;;1711857;28;20209;-71
2022/01/10 05:14:34;;;;;;;0.22;0.22;;;;;;;;;;1711338;28;20276;-72
2022/01/10 05:15:26;;;;;;;0.00;0.00;;;;;;;;;;1707890;28;20250;-72
2022/01/10 05:16:19;;;;;;;0.00;0.00;;;;;;;;;;1711471;28;20276;-72
2022/01/10 05:17:11;;;;;;;0.10;0.10;;;;;;;;;;1712223;28;20352;-72
2022/01/10 05:18:03;;;;;;;0.00;0.00;;;;;;;;;;1711348;28;20218;-72
2022/01/10 05:18:54;;;;;;;0.00;0.00;;;;;;;;;;1711548;28;20220;-72
2022/01/10 05:19:46;;;;;;;0.00;0.00;;;;;;;;;;1710630;28;20271;-72
2022/01/10 05:20:38;;;;;;;0.00;0.00;;;;;;;;;;1709746;28;20543;-72
2022/01/10 05:21:30;;;;;;;0.00;0.00;;;;;;;;;;1711401;28;20197;-72
2022/01/10 05:22:21;;;;;;;0.10;0.10;;;;;;;;;;1711749;28;20519;-71
2022/01/10 05:23:14;;;;;;;0.00;0.00;;;;;;;;;;1711552;28;20722;-71